Lexington, Illinois
Current Conditions -  °F | °C
As of 2:56 AM on Thursday 23 Oct 2014 (Local Time) from KBMI Reporting Station
Clear Clear  
Wind Chill: 36°   Ceiling: Unl
Heat Index: 41°   Visibility: 10mi
Dew Point: 36°   Wind: 8mph
Humidity: 82%   Direction: 150°SSE
Pressure: 30.23"   Gusts: NA
Location:  40.64°N, 88.78°W
Report Text: KBMI 230756Z AUTO 15007KT 10SM CLR 05/02 A3023 RMK AO2 T00500022 RAB0658E0659B16E52 P0000 SLP240
Loading
Personal Weather Stations






























Interactive Weather Map New forecast layout! Learn more

10-Day Weather Forecast

Advertisements
Track Severe Weather on mobile